sensor_id;sensor_type;location;lat;lon;timestamp;temperature;humidity
67050;DHT22;53955;52.442;13.284;2023-10-13T00:01:20;17.00;81.90
67050;DHT22;53955;52.442;13.284;2023-10-13T00:03:47;16.90;81.70
67050;DHT22;53955;52.442;13.284;2023-10-13T00:06:13;16.90;82.30
67050;DHT22;53955;52.442;13.284;2023-10-13T00:08:41;16.90;82.10
67050;DHT22;53955;52.442;13.284;2023-10-13T00:11:13;17.00;81.60
67050;DHT22;53955;52.442;13.284;2023-10-13T00:13:40;17.00;81.30
67050;DHT22;53955;52.442;13.284;2023-10-13T00:16:16;17.00;81.20
67050;DHT22;53955;52.442;13.284;2023-10-13T00:18:46;16.80;81.60
67050;DHT22;53955;52.442;13.284;2023-10-13T00:21:14;16.80;82.20
67050;DHT22;53955;52.442;13.284;2023-10-13T00:23:41;16.90;82.40
67050;DHT22;53955;52.442;13.284;2023-10-13T00:26:19;16.80;82.50
67050;DHT22;53955;52.442;13.284;2023-10-13T00:28:49;16.80;82.30
67050;DHT22;53955;52.442;13.284;2023-10-13T00:31:24;16.90;81.80
67050;DHT22;53955;52.442;13.284;2023-10-13T00:33:54;16.90;81.70
67050;DHT22;53955;52.442;13.284;2023-10-13T00:36:26;16.70;82.50
67050;DHT22;53955;52.442;13.284;2023-10-13T00:38:53;16.70;82.90
67050;DHT22;53955;52.442;13.284;2023-10-13T00:41:22;16.60;83.30
67050;DHT22;53955;52.442;13.284;2023-10-13T00:44:10;16.60;83.90
67050;DHT22;53955;52.442;13.284;2023-10-13T00:46:38;16.70;82.40
67050;DHT22;53955;52.442;13.284;2023-10-13T00:49:10;16.80;82.60
67050;DHT22;53955;52.442;13.284;2023-10-13T00:51:36;16.80;83.10
67050;DHT22;53955;52.442;13.284;2023-10-13T00:54:07;16.80;82.90
67050;DHT22;53955;52.442;13.284;2023-10-13T00:56:38;16.80;83.20
67050;DHT22;53955;52.442;13.284;2023-10-13T00:59:13;17.00;83.20
67050;DHT22;53955;52.442;13.284;2023-10-13T01:01:39;17.00;82.30
67050;DHT22;53955;52.442;13.284;2023-10-13T01:04:08;17.10;82.00
67050;DHT22;53955;52.442;13.284;2023-10-13T01:06:37;17.00;82.10
67050;DHT22;53955;52.442;13.284;2023-10-13T01:09:06;16.90;82.50
67050;DHT22;53955;52.442;13.284;2023-10-13T01:11:41;16.90;81.60
67050;DHT22;53955;52.442;13.284;2023-10-13T01:14:09;16.90;81.50
67050;DHT22;53955;52.442;13.284;2023-10-13T01:16:36;17.00;82.40
67050;DHT22;53955;52.442;13.284;2023-10-13T01:19:05;17.00;82.10
67050;DHT22;53955;52.442;13.284;2023-10-13T01:21:31;16.90;82.40
67050;DHT22;53955;52.442;13.284;2023-10-13T01:24:00;16.90;82.60
67050;DHT22;53955;52.442;13.284;2023-10-13T01:26:26;16.90;82.70
67050;DHT22;53955;52.442;13.284;2023-10-13T01:28:57;16.90;82.70
67050;DHT22;53955;52.442;13.284;2023-10-13T01:31:22;16.90;82.20
67050;DHT22;53955;52.442;13.284;2023-10-13T01:33:54;16.90;82.50
67050;DHT22;53955;52.442;13.284;2023-10-13T01:36:21;17.00;82.30
67050;DHT22;53955;52.442;13.284;2023-10-13T01:38:48;16.90;82.50
67050;DHT22;53955;52.442;13.284;2023-10-13T01:41:15;16.90;82.80
67050;DHT22;53955;52.442;13.284;2023-10-13T01:43:41;16.90;83.00
67050;DHT22;53955;52.442;13.284;2023-10-13T01:46:09;16.70;82.90
67050;DHT22;53955;52.442;13.284;2023-10-13T01:48:39;16.80;82.80
67050;DHT22;53955;52.442;13.284;2023-10-13T01:51:05;16.80;82.90
67050;DHT22;53955;52.442;13.284;2023-10-13T01:53:36;16.80;83.20
67050;DHT22;53955;52.442;13.284;2023-10-13T01:56:02;16.80;83.70
67050;DHT22;53955;52.442;13.284;2023-10-13T01:58:32;16.80;83.30
67050;DHT22;53955;52.442;13.284;2023-10-13T02:00:59;16.80;83.20
67050;DHT22;53955;52.442;13.284;2023-10-13T02:03:27;16.80;83.40
67050;DHT22;53955;52.442;13.284;2023-10-13T02:05:55;16.70;83.60
67050;DHT22;53955;52.442;13.284;2023-10-13T02:08:29;16.80;83.70
67050;DHT22;53955;52.442;13.284;2023-10-13T02:10:57;16.80;83.50
67050;DHT22;53955;52.442;13.284;2023-10-13T02:13:25;16.80;83.90
67050;DHT22;53955;52.442;13.284;2023-10-13T02:15:55;16.80;83.80
67050;DHT22;53955;52.442;13.284;2023-10-13T02:18:23;16.80;84.00
67050;DHT22;53955;52.442;13.284;2023-10-13T02:20:51;16.80;84.00
67050;DHT22;53955;52.442;13.284;2023-10-13T02:23:21;16.80;84.00
67050;DHT22;53955;52.442;13.284;2023-10-13T02:25:47;16.80;84.30
67050;DHT22;53955;52.442;13.284;2023-10-13T02:28:17;16.80;84.40
67050;DHT22;53955;52.442;13.284;2023-10-13T02:30:46;16.90;84.00
67050;DHT22;53955;52.442;13.284;2023-10-13T02:33:17;17.00;83.30
67050;DHT22;53955;52.442;13.284;2023-10-13T02:35:47;16.90;83.90
67050;DHT22;53955;52.442;13.284;2023-10-13T02:38:19;16.90;83.90
67050;DHT22;53955;52.442;13.284;2023-10-13T02:40:52;16.70;84.20
67050;DHT22;53955;52.442;13.284;2023-10-13T02:43:19;16.70;84.70
67050;DHT22;53955;52.442;13.284;2023-10-13T02:45:52;16.70;84.40
67050;DHT22;53955;52.442;13.284;2023-10-13T02:48:25;16.70;84.70
67050;DHT22;53955;52.442;13.284;2023-10-13T02:51:05;16.70;84.90
67050;DHT22;53955;52.442;13.284;2023-10-13T02:53:41;16.60;84.90
67050;DHT22;53955;52.442;13.284;2023-10-13T02:56:07;16.60;85.10
67050;DHT22;53955;52.442;13.284;2023-10-13T02:58:33;16.50;85.10
67050;DHT22;53955;52.442;13.284;2023-10-13T03:01:07;16.50;85.80
67050;DHT22;53955;52.442;13.284;2023-10-13T03:03:45;16.50;85.90
67050;DHT22;53955;52.442;13.284;2023-10-13T03:06:17;16.40;86.00
67050;DHT22;53955;52.442;13.284;2023-10-13T03:08:43;16.50;86.00
67050;DHT22;53955;52.442;13.284;2023-10-13T03:11:10;16.50;86.00
67050;DHT22;53955;52.442;13.284;2023-10-13T03:13:35;16.60;85.90
67050;DHT22;53955;52.442;13.284;2023-10-13T03:16:10;16.50;85.80
67050;DHT22;53955;52.442;13.284;2023-10-13T03:18:36;16.60;86.00
67050;DHT22;53955;52.442;13.284;2023-10-13T03:21:05;16.60;85.80
67050;DHT22;53955;52.442;13.284;2023-10-13T03:23:33;16.60;86.60
67050;DHT22;53955;52.442;13.284;2023-10-13T03:26:10;16.50;86.20
67050;DHT22;53955;52.442;13.284;2023-10-13T03:28:36;16.60;85.90
67050;DHT22;53955;52.442;13.284;2023-10-13T03:31:03;16.60;86.00
67050;DHT22;53955;52.442;13.284;2023-10-13T03:33:32;16.50;86.20
67050;DHT22;53955;52.442;13.284;2023-10-13T03:35:59;16.60;86.70
67050;DHT22;53955;52.442;13.284;2023-10-13T03:38:32;16.70;86.20
67050;DHT22;53955;52.442;13.284;2023-10-13T03:41:02;16.80;85.60
67050;DHT22;53955;52.442;13.284;2023-10-13T03:43:37;16.80;85.80
67050;DHT22;53955;52.442;13.284;2023-10-13T03:46:11;16.80;85.20
67050;DHT22;53955;52.442;13.284;2023-10-13T03:48:37;16.80;85.20
67050;DHT22;53955;52.442;13.284;2023-10-13T03:51:17;16.80;85.90
67050;DHT22;53955;52.442;13.284;2023-10-13T03:53:45;16.80;85.20
67050;DHT22;53955;52.442;13.284;2023-10-13T03:56:19;16.80;85.70
67050;DHT22;53955;52.442;13.284;2023-10-13T03:58:52;16.80;85.80
67050;DHT22;53955;52.442;13.284;2023-10-13T04:01:19;16.80;85.80
67050;DHT22;53955;52.442;13.284;2023-10-13T04:03:57;16.80;85.60
67050;DHT22;53955;52.442;13.284;2023-10-13T04:06:28;16.80;85.90
67050;DHT22;53955;52.442;13.284;2023-10-13T04:09:17;16.70;86.00
67050;DHT22;53955;52.442;13.284;2023-10-13T04:12:02;16.70;85.70
67050;DHT22;53955;52.442;13.284;2023-10-13T04:14:46;16.80;85.90
67050;DHT22;53955;52.442;13.284;2023-10-13T04:17:35;16.80;86.20
67050;DHT22;53955;52.442;13.284;2023-10-13T04:20:09;16.80;86.40
67050;DHT22;53955;52.442;13.284;2023-10-13T04:22:44;16.80;86.30
67050;DHT22;53955;52.442;13.284;2023-10-13T04:25:43;16.70;86.00
67050;DHT22;53955;52.442;13.284;2023-10-13T04:28:32;16.70;86.70
67050;DHT22;53955;52.442;13.284;2023-10-13T04:31:05;16.70;86.70
67050;DHT22;53955;52.442;13.284;2023-10-13T04:33:50;16.70;86.50
67050;DHT22;53955;52.442;13.284;2023-10-13T04:36:21;16.80;86.60
67050;DHT22;53955;52.442;13.284;2023-10-13T04:39:02;16.80;86.50
67050;DHT22;53955;52.442;13.284;2023-10-13T04:41:36;16.80;86.50
67050;DHT22;53955;52.442;13.284;2023-10-13T04:44:05;16.70;86.90
67050;DHT22;53955;52.442;13.284;2023-10-13T04:46:51;16.80;86.70
67050;DHT22;53955;52.442;13.284;2023-10-13T04:49:34;16.70;87.30
67050;DHT22;53955;52.442;13.284;2023-10-13T04:52:15;16.70;87.10
67050;DHT22;53955;52.442;13.284;2023-10-13T04:55:05;16.80;87.00
67050;DHT22;53955;52.442;13.284;2023-10-13T04:57:59;16.90;86.80
67050;DHT22;53955;52.442;13.284;2023-10-13T05:00:36;17.00;86.50
67050;DHT22;53955;52.442;13.284;2023-10-13T05:03:42;16.90;86.00
67050;DHT22;53955;52.442;13.284;2023-10-13T05:06:46;16.90;86.50
67050;DHT22;53955;52.442;13.284;2023-10-13T05:09:30;16.90;87.00
67050;DHT22;53955;52.442;13.284;2023-10-13T05:12:14;17.00;86.80
67050;DHT22;53955;52.442;13.284;2023-10-13T05:15:00;17.00;86.70
67050;DHT22;53955;52.442;13.284;2023-10-13T05:17:44;17.00;86.70
67050;DHT22;53955;52.442;13.284;2023-10-13T05:20:28;17.00;87.10
67050;DHT22;53955;52.442;13.284;2023-10-13T05:23:12;17.10;86.80
67050;DHT22;53955;52.442;13.284;2023-10-13T05:26:01;17.10;86.80
67050;DHT22;53955;52.442;13.284;2023-10-13T05:28:45;17.10;87.00
67050;DHT22;53955;52.442;13.284;2023-10-13T05:31:30;17.20;86.70
67050;DHT22;53955;52.442;13.284;2023-10-13T05:34:15;17.30;86.40
67050;DHT22;53955;52.442;13.284;2023-10-13T05:36:59;17.20;86.80
67050;DHT22;53955;52.442;13.284;2023-10-13T05:39:43;17.20;86.30
67050;DHT22;53955;52.442;13.284;2023-10-13T05:42:27;17.10;87.00
67050;DHT22;53955;52.442;13.284;2023-10-13T05:45:11;17.10;86.50
67050;DHT22;53955;52.442;13.284;2023-10-13T05:48:04;17.10;86.90
67050;DHT22;53955;52.442;13.284;2023-10-13T05:50:38;17.20;87.10
67050;DHT22;53955;52.442;13.284;2023-10-13T05:53:43;17.10;86.90
67050;DHT22;53955;52.442;13.284;2023-10-13T05:56:27;17.30;87.10
67050;DHT22;53955;52.442;13.284;2023-10-13T05:59:11;17.30;86.80
67050;DHT22;53955;52.442;13.284;2023-10-13T06:01:52;17.20;86.70
67050;DHT22;53955;52.442;13.284;2023-10-13T06:04:37;17.30;87.00
67050;DHT22;53955;52.442;13.284;2023-10-13T06:07:21;17.30;86.90
67050;DHT22;53955;52.442;13.284;2023-10-13T06:10:06;17.40;86.90
67050;DHT22;53955;52.442;13.284;2023-10-13T06:12:50;17.50;86.70
67050;DHT22;53955;52.442;13.284;2023-10-13T06:15:35;17.80;86.20
67050;DHT22;53955;52.442;13.284;2023-10-13T06:18:19;18.00;86.10
67050;DHT22;53955;52.442;13.284;2023-10-13T06:21:05;18.30;83.70
67050;DHT22;53955;52.442;13.284;2023-10-13T06:23:49;18.60;82.20
67050;DHT22;53955;52.442;13.284;2023-10-13T06:26:33;19.00;81.60
67050;DHT22;53955;52.442;13.284;2023-10-13T06:29:18;19.40;80.20
67050;DHT22;53955;52.442;13.284;2023-10-13T06:31:45;19.50;78.60
67050;DHT22;53955;52.442;13.284;2023-10-13T06:34:11;19.30;79.10
67050;DHT22;53955;52.442;13.284;2023-10-13T06:36:42;19.10;79.70
67050;DHT22;53955;52.442;13.284;2023-10-13T06:39:11;19.10;80.80
67050;DHT22;53955;52.442;13.284;2023-10-13T06:42:00;19.10;80.60
67050;DHT22;53955;52.442;13.284;2023-10-13T06:44:28;19.40;80.10
67050;DHT22;53955;52.442;13.284;2023-10-13T06:46:57;20.40;78.10
67050;DHT22;53955;52.442;13.284;2023-10-13T06:49:24;22.20;72.10
67050;DHT22;53955;52.442;13.284;2023-10-13T06:51:52;24.10;61.90
67050;DHT22;53955;52.442;13.284;2023-10-13T06:54:19;25.50;57.70
67050;DHT22;53955;52.442;13.284;2023-10-13T06:56:46;26.90;51.50
67050;DHT22;53955;52.442;13.284;2023-10-13T06:59:16;28.20;48.40
67050;DHT22;53955;52.442;13.284;2023-10-13T07:01:43;29.20;44.70
67050;DHT22;53955;52.442;13.284;2023-10-13T07:04:10;29.80;41.80
67050;DHT22;53955;52.442;13.284;2023-10-13T07:06:40;29.30;42.60
67050;DHT22;53955;52.442;13.284;2023-10-13T07:09:15;30.30;42.00
67050;DHT22;53955;52.442;13.284;2023-10-13T07:12:05;30.50;39.10
67050;DHT22;53955;52.442;13.284;2023-10-13T07:14:44;27.80;45.00
67050;DHT22;53955;52.442;13.284;2023-10-13T07:17:17;25.70;51.60
67050;DHT22;53955;52.442;13.284;2023-10-13T07:19:49;24.30;56.20
67050;DHT22;53955;52.442;13.284;2023-10-13T07:22:18;23.50;61.60
67050;DHT22;53955;52.442;13.284;2023-10-13T07:24:47;22.60;64.90
67050;DHT22;53955;52.442;13.284;2023-10-13T07:27:15;22.00;67.40
67050;DHT22;53955;52.442;13.284;2023-10-13T07:29:48;21.50;69.30
67050;DHT22;53955;52.442;13.284;2023-10-13T07:32:21;21.20;70.60
67050;DHT22;53955;52.442;13.284;2023-10-13T07:34:52;21.00;72.70
67050;DHT22;53955;52.442;13.284;2023-10-13T07:37:20;20.80;74.30
67050;DHT22;53955;52.442;13.284;2023-10-13T07:39:52;20.50;75.00
67050;DHT22;53955;52.442;13.284;2023-10-13T07:42:18;20.30;75.50
67050;DHT22;53955;52.442;13.284;2023-10-13T07:44:47;20.20;76.90
67050;DHT22;53955;52.442;13.284;2023-10-13T07:47:14;20.00;77.20
67050;DHT22;53955;52.442;13.284;2023-10-13T07:49:43;19.90;77.60
67050;DHT22;53955;52.442;13.284;2023-10-13T07:52:11;19.90;78.20
67050;DHT22;53955;52.442;13.284;2023-10-13T07:54:56;19.90;78.40
67050;DHT22;53955;52.442;13.284;2023-10-13T07:57:36;19.90;78.10
67050;DHT22;53955;52.442;13.284;2023-10-13T08:00:18;19.90;78.70
67050;DHT22;53955;52.442;13.284;2023-10-13T08:02:57;19.90;78.50
67050;DHT22;53955;52.442;13.284;2023-10-13T08:05:34;19.80;79.20
67050;DHT22;53955;52.442;13.284;2023-10-13T08:08:21;19.70;78.90
67050;DHT22;53955;52.442;13.284;2023-10-13T08:10:52;19.60;80.10
67050;DHT22;53955;52.442;13.284;2023-10-13T08:13:21;19.50;79.60
67050;DHT22;53955;52.442;13.284;2023-10-13T08:15:48;19.50;80.00
67050;DHT22;53955;52.442;13.284;2023-10-13T08:18:14;19.50;80.20
67050;DHT22;53955;52.442;13.284;2023-10-13T08:20:45;19.50;80.60
67050;DHT22;53955;52.442;13.284;2023-10-13T08:23:12;19.60;80.70
67050;DHT22;53955;52.442;13.284;2023-10-13T08:25:39;19.70;80.60
67050;DHT22;53955;52.442;13.284;2023-10-13T08:28:21;19.70;79.60
67050;DHT22;53955;52.442;13.284;2023-10-13T08:31:04;19.70;79.80
67050;DHT22;53955;52.442;13.284;2023-10-13T08:33:47;19.80;80.10
67050;DHT22;53955;52.442;13.284;2023-10-13T08:36:13;19.90;80.20
67050;DHT22;53955;52.442;13.284;2023-10-13T08:38:54;19.80;80.40
67050;DHT22;53955;52.442;13.284;2023-10-13T08:41:21;19.70;80.30
67050;DHT22;53955;52.442;13.284;2023-10-13T08:44:01;19.70;80.90
67050;DHT22;53955;52.442;13.284;2023-10-13T08:46:30;19.70;80.90
67050;DHT22;53955;52.442;13.284;2023-10-13T08:49:05;19.60;81.20
67050;DHT22;53955;52.442;13.284;2023-10-13T08:51:40;19.60;81.40
67050;DHT22;53955;52.442;13.284;2023-10-13T08:54:13;19.70;80.90
67050;DHT22;53955;52.442;13.284;2023-10-13T08:56:59;19.60;81.50
67050;DHT22;53955;52.442;13.284;2023-10-13T08:59:33;19.60;81.30
67050;DHT22;53955;52.442;13.284;2023-10-13T09:02:11;19.60;81.20
67050;DHT22;53955;52.442;13.284;2023-10-13T09:04:42;19.70;81.50
67050;DHT22;53955;52.442;13.284;2023-10-13T09:07:09;19.70;81.30
67050;DHT22;53955;52.442;13.284;2023-10-13T09:09:44;19.70;81.00
67050;DHT22;53955;52.442;13.284;2023-10-13T09:12:25;19.70;81.40
67050;DHT22;53955;52.442;13.284;2023-10-13T09:15:03;19.70;81.50
67050;DHT22;53955;52.442;13.284;2023-10-13T09:17:30;19.80;81.40
67050;DHT22;53955;52.442;13.284;2023-10-13T09:20:01;19.80;81.50
67050;DHT22;53955;52.442;13.284;2023-10-13T09:22:49;19.80;81.20
67050;DHT22;53955;52.442;13.284;2023-10-13T09:25:21;19.90;81.40
67050;DHT22;53955;52.442;13.284;2023-10-13T09:27:48;19.90;81.30
67050;DHT22;53955;52.442;13.284;2023-10-13T09:30:18;19.80;81.50
67050;DHT22;53955;52.442;13.284;2023-10-13T09:32:46;19.80;81.60
67050;DHT22;53955;52.442;13.284;2023-10-13T09:35:16;19.80;81.70
67050;DHT22;53955;52.442;13.284;2023-10-13T09:37:42;19.80;82.30
67050;DHT22;53955;52.442;13.284;2023-10-13T09:40:13;19.70;82.60
67050;DHT22;53955;52.442;13.284;2023-10-13T09:42:53;19.70;82.80
67050;DHT22;53955;52.442;13.284;2023-10-13T09:45:25;19.70;83.30
67050;DHT22;53955;52.442;13.284;2023-10-13T09:47:53;19.60;83.10
67050;DHT22;53955;52.442;13.284;2023-10-13T09:50:23;19.60;82.90
67050;DHT22;53955;52.442;13.284;2023-10-13T09:52:49;19.60;83.50
67050;DHT22;53955;52.442;13.284;2023-10-13T09:55:21;19.60;83.60
67050;DHT22;53955;52.442;13.284;2023-10-13T09:57:51;19.60;83.50
67050;DHT22;53955;52.442;13.284;2023-10-13T10:00:23;19.60;83.50
67050;DHT22;53955;52.442;13.284;2023-10-13T10:03:05;19.60;83.80
67050;DHT22;53955;52.442;13.284;2023-10-13T10:05:40;19.70;83.70
67050;DHT22;53955;52.442;13.284;2023-10-13T10:08:06;19.80;83.70
67050;DHT22;53955;52.442;13.284;2023-10-13T10:10:47;19.90;83.40
67050;DHT22;53955;52.442;13.284;2023-10-13T10:13:15;19.90;83.50
67050;DHT22;53955;52.442;13.284;2023-10-13T10:15:46;19.90;82.90
67050;DHT22;53955;52.442;13.284;2023-10-13T10:18:19;20.00;83.50
67050;DHT22;53955;52.442;13.284;2023-10-13T10:20:47;20.00;83.70
67050;DHT22;53955;52.442;13.284;2023-10-13T10:23:23;20.00;83.60
67050;DHT22;53955;52.442;13.284;2023-10-13T10:25:50;19.90;83.70
67050;DHT22;53955;52.442;13.284;2023-10-13T10:28:17;19.90;84.10
67050;DHT22;53955;52.442;13.284;2023-10-13T10:30:45;19.90;84.40
67050;DHT22;53955;52.442;13.284;2023-10-13T10:33:12;19.90;84.60
67050;DHT22;53955;52.442;13.284;2023-10-13T10:35:40;19.90;84.80
67050;DHT22;53955;52.442;13.284;2023-10-13T10:38:08;19.80;85.20
67050;DHT22;53955;52.442;13.284;2023-10-13T10:40:50;19.80;85.20
67050;DHT22;53955;52.442;13.284;2023-10-13T10:43:23;19.90;85.90
67050;DHT22;53955;52.442;13.284;2023-10-13T10:45:51;19.70;85.80
67050;DHT22;53955;52.442;13.284;2023-10-13T10:48:25;19.90;85.50
67050;DHT22;53955;52.442;13.284;2023-10-13T10:50:58;19.80;85.90
67050;DHT22;53955;52.442;13.284;2023-10-13T10:53:33;19.80;85.60
67050;DHT22;53955;52.442;13.284;2023-10-13T10:56:06;19.90;86.00
67050;DHT22;53955;52.442;13.284;2023-10-13T10:58:45;19.90;86.30
67050;DHT22;53955;52.442;13.284;2023-10-13T11:01:12;19.90;86.40
67050;DHT22;53955;52.442;13.284;2023-10-13T11:03:52;19.80;86.60
67050;DHT22;53955;52.442;13.284;2023-10-13T11:06:21;19.90;86.50
67050;DHT22;53955;52.442;13.284;2023-10-13T11:08:49;20.00;87.00
67050;DHT22;53955;52.442;13.284;2023-10-13T11:11:29;20.00;86.60
67050;DHT22;53955;52.442;13.284;2023-10-13T11:14:00;19.90;86.20
67050;DHT22;53955;52.442;13.284;2023-10-13T11:16:45;20.10;86.30
67050;DHT22;53955;52.442;13.284;2023-10-13T11:19:16;20.20;86.50
67050;DHT22;53955;52.442;13.284;2023-10-13T11:21:44;20.10;86.70
67050;DHT22;53955;52.442;13.284;2023-10-13T11:24:10;20.10;86.50
67050;DHT22;53955;52.442;13.284;2023-10-13T11:26:37;20.20;86.20
67050;DHT22;53955;52.442;13.284;2023-10-13T11:29:13;20.30;86.30
67050;DHT22;53955;52.442;13.284;2023-10-13T11:31:39;20.20;86.00
67050;DHT22;53955;52.442;13.284;2023-10-13T11:36:33;20.20;86.30
67050;DHT22;53955;52.442;13.284;2023-10-13T11:39:02;20.10;86.00
67050;DHT22;53955;52.442;13.284;2023-10-13T11:41:31;20.10;86.70
67050;DHT22;53955;52.442;13.284;2023-10-13T11:44:01;20.10;86.80
67050;DHT22;53955;52.442;13.284;2023-10-13T11:46:39;20.10;86.70
67050;DHT22;53955;52.442;13.284;2023-10-13T11:49:22;20.20;86.70
67050;DHT22;53955;52.442;13.284;2023-10-13T11:52:00;20.10;86.50
67050;DHT22;53955;52.442;13.284;2023-10-13T11:54:46;20.20;86.00
67050;DHT22;53955;52.442;13.284;2023-10-13T11:57:13;20.20;86.70
67050;DHT22;53955;52.442;13.284;2023-10-13T11:59:42;20.30;86.10
67050;DHT22;53955;52.442;13.284;2023-10-13T12:02:18;20.40;85.60
67050;DHT22;53955;52.442;13.284;2023-10-13T12:05:03;20.40;85.80
67050;DHT22;53955;52.442;13.284;2023-10-13T12:07:37;20.40;85.60
67050;DHT22;53955;52.442;13.284;2023-10-13T12:10:15;20.40;85.00
67050;DHT22;53955;52.442;13.284;2023-10-13T12:12:45;20.60;85.00
67050;DHT22;53955;52.442;13.284;2023-10-13T12:15:18;20.50;85.20
67050;DHT22;53955;52.442;13.284;2023-10-13T12:17:55;20.50;85.50
67050;DHT22;53955;52.442;13.284;2023-10-13T12:20:23;20.60;84.90
67050;DHT22;53955;52.442;13.284;2023-10-13T12:22:58;20.60;85.00
67050;DHT22;53955;52.442;13.284;2023-10-13T12:25:37;20.70;84.40
67050;DHT22;53955;52.442;13.284;2023-10-13T12:28:21;20.70;84.00
67050;DHT22;53955;52.442;13.284;2023-10-13T12:30:48;20.80;84.00
67050;DHT22;53955;52.442;13.284;2023-10-13T12:33:17;20.90;84.50
67050;DHT22;53955;52.442;13.284;2023-10-13T12:35:50;20.90;82.90
67050;DHT22;53955;52.442;13.284;2023-10-13T12:38:29;20.90;82.90
67050;DHT22;53955;52.442;13.284;2023-10-13T12:41:17;21.00;82.30
67050;DHT22;53955;52.442;13.284;2023-10-13T12:44:01;21.00;82.60
67050;DHT22;53955;52.442;13.284;2023-10-13T12:46:46;21.10;82.50
67050;DHT22;53955;52.442;13.284;2023-10-13T12:49:32;21.10;82.20
67050;DHT22;53955;52.442;13.284;2023-10-13T12:52:23;21.10;82.50
67050;DHT22;53955;52.442;13.284;2023-10-13T12:54:52;21.10;82.20
67050;DHT22;53955;52.442;13.284;2023-10-13T12:57:25;21.30;81.90
67050;DHT22;53955;52.442;13.284;2023-10-13T12:59:52;21.30;82.10
67050;DHT22;53955;52.442;13.284;2023-10-13T13:02:19;21.30;81.70
67050;DHT22;53955;52.442;13.284;2023-10-13T13:04:46;21.40;81.30
67050;DHT22;53955;52.442;13.284;2023-10-13T13:07:16;21.50;81.30
67050;DHT22;53955;52.442;13.284;2023-10-13T13:09:43;21.40;80.80
67050;DHT22;53955;52.442;13.284;2023-10-13T13:12:09;21.50;81.40
67050;DHT22;53955;52.442;13.284;2023-10-13T13:14:39;21.50;80.50
67050;DHT22;53955;52.442;13.284;2023-10-13T13:17:07;21.60;80.60
67050;DHT22;53955;52.442;13.284;2023-10-13T13:19:33;21.60;80.30
67050;DHT22;53955;52.442;13.284;2023-10-13T13:22:02;21.70;79.80
67050;DHT22;53955;52.442;13.284;2023-10-13T13:24:29;21.80;79.60
67050;DHT22;53955;52.442;13.284;2023-10-13T13:26:56;21.80;79.20
67050;DHT22;53955;52.442;13.284;2023-10-13T13:29:28;22.00;79.50
67050;DHT22;53955;52.442;13.284;2023-10-13T13:31:56;22.10;79.20
67050;DHT22;53955;52.442;13.284;2023-10-13T13:34:22;22.00;78.10
67050;DHT22;53955;52.442;13.284;2023-10-13T13:36:49;22.10;78.30
67050;DHT22;53955;52.442;13.284;2023-10-13T13:39:18;22.10;78.20
67050;DHT22;53955;52.442;13.284;2023-10-13T13:41:54;22.10;78.00
67050;DHT22;53955;52.442;13.284;2023-10-13T13:44:22;22.20;77.70
67050;DHT22;53955;52.442;13.284;2023-10-13T13:46:56;22.20;77.50
67050;DHT22;53955;52.442;13.284;2023-10-13T13:49:23;22.20;77.20
67050;DHT22;53955;52.442;13.284;2023-10-13T13:51:55;22.20;77.40
67050;DHT22;53955;52.442;13.284;2023-10-13T13:54:21;22.30;77.70
67050;DHT22;53955;52.442;13.284;2023-10-13T13:56:52;22.30;77.10
67050;DHT22;53955;52.442;13.284;2023-10-13T13:59:18;22.40;77.20
67050;DHT22;53955;52.442;13.284;2023-10-13T14:01:45;22.50;76.20
67050;DHT22;53955;52.442;13.284;2023-10-13T14:04:14;22.60;76.60
67050;DHT22;53955;52.442;13.284;2023-10-13T14:06:43;22.60;75.90
67050;DHT22;53955;52.442;13.284;2023-10-13T14:09:12;22.70;75.90
67050;DHT22;53955;52.442;13.284;2023-10-13T14:11:57;22.70;75.80
67050;DHT22;53955;52.442;13.284;2023-10-13T14:14:42;22.70;75.40
67050;DHT22;53955;52.442;13.284;2023-10-13T14:17:14;22.70;75.50
67050;DHT22;53955;52.442;13.284;2023-10-13T14:19:42;22.70;75.20
67050;DHT22;53955;52.442;13.284;2023-10-13T14:22:11;22.80;75.40
67050;DHT22;53955;52.442;13.284;2023-10-13T14:24:38;22.80;75.30
67050;DHT22;53955;52.442;13.284;2023-10-13T14:27:12;22.80;74.80
67050;DHT22;53955;52.442;13.284;2023-10-13T14:29:43;22.80;75.00
67050;DHT22;53955;52.442;13.284;2023-10-13T14:32:10;22.80;74.50
67050;DHT22;53955;52.442;13.284;2023-10-13T14:34:39;22.80;74.70
67050;DHT22;53955;52.442;13.284;2023-10-13T14:37:08;22.70;74.30
67050;DHT22;53955;52.442;13.284;2023-10-13T14:39:38;22.60;74.50
67050;DHT22;53955;52.442;13.284;2023-10-13T14:42:04;22.60;74.10
67050;DHT22;53955;52.442;13.284;2023-10-13T14:44:32;22.60;74.20
67050;DHT22;53955;52.442;13.284;2023-10-13T14:46:58;22.60;73.90
67050;DHT22;53955;52.442;13.284;2023-10-13T14:49:26;22.50;74.20
67050;DHT22;53955;52.442;13.284;2023-10-13T14:51:52;22.60;74.00
67050;DHT22;53955;52.442;13.284;2023-10-13T14:54:21;22.40;74.00
67050;DHT22;53955;52.442;13.284;2023-10-13T14:56:58;22.40;74.00
67050;DHT22;53955;52.442;13.284;2023-10-13T14:59:25;22.30;73.90
67050;DHT22;53955;52.442;13.284;2023-10-13T15:01:51;22.40;73.70
67050;DHT22;53955;52.442;13.284;2023-10-13T15:04:18;22.30;73.80
67050;DHT22;53955;52.442;13.284;2023-10-13T15:06:50;22.40;74.30
67050;DHT22;53955;52.442;13.284;2023-10-13T15:09:16;22.30;73.70
67050;DHT22;53955;52.442;13.284;2023-10-13T15:11:50;22.30;73.70
67050;DHT22;53955;52.442;13.284;2023-10-13T15:14:19;22.30;73.90
67050;DHT22;53955;52.442;13.284;2023-10-13T15:16:48;22.30;74.10
67050;DHT22;53955;52.442;13.284;2023-10-13T15:19:14;22.40;73.90
67050;DHT22;53955;52.442;13.284;2023-10-13T15:21:42;22.30;73.80
67050;DHT22;53955;52.442;13.284;2023-10-13T15:24:14;22.30;74.20
67050;DHT22;53955;52.442;13.284;2023-10-13T15:26:42;22.30;73.50
67050;DHT22;53955;52.442;13.284;2023-10-13T15:29:15;22.40;73.70
67050;DHT22;53955;52.442;13.284;2023-10-13T15:31:43;22.20;73.40
67050;DHT22;53955;52.442;13.284;2023-10-13T15:34:19;22.20;73.40
67050;DHT22;53955;52.442;13.284;2023-10-13T15:36:48;22.20;73.60
67050;DHT22;53955;52.442;13.284;2023-10-13T15:39:17;22.20;73.30
67050;DHT22;53955;52.442;13.284;2023-10-13T15:41:49;22.10;73.50
67050;DHT22;53955;52.442;13.284;2023-10-13T15:44:19;22.20;73.60
67050;DHT22;53955;52.442;13.284;2023-10-13T15:46:52;22.20;73.10
67050;DHT22;53955;52.442;13.284;2023-10-13T15:49:19;22.20;73.10
67050;DHT22;53955;52.442;13.284;2023-10-13T15:51:46;22.20;72.90
67050;DHT22;53955;52.442;13.284;2023-10-13T15:54:12;22.10;72.70